Time;durP1;ratioP1;P1;durP2;ratioP2;P2;SDS_P1;SDS_P2;PMS_P1;PMS_P2;Temp;Humidity;BMP_temperature;BMP_pressure;BME280_temperature;BME280_humidity;BME280_pressure;Samples;Min_cycle;Max_cycle;Signal;HPM_P1;HPM_P2
2024/01/13 00:00:54;;;;;;;7.72;4.40;;;;;;;;;;10293957;28;20446;-51
2024/01/13 00:05:55;;;;;;;13.65;4.93;;;;;;;;;;10301652;28;20482;-48
2024/01/13 00:10:56;;;;;;;5.22;3.90;;;;;;;;;;10295684;28;20497;-48
2024/01/13 00:15:56;;;;;;;7.13;4.28;;;;;;;;;;10294809;28;20059;-48
2024/01/13 00:20:57;;;;;;;5.22;4.03;;;;;;;;;;10306389;28;20034;-46
2024/01/13 00:25:57;;;;;;;7.82;4.30;;;;;;;;;;10306134;28;20030;-49
2024/01/13 00:30:58;;;;;;;5.82;4.10;;;;;;;;;;10308673;28;20033;-48
2024/01/13 00:35:58;;;;;;;7.18;4.32;;;;;;;;;;10318414;28;20058;-47
2024/01/13 00:40:59;;;;;;;4.97;4.03;;;;;;;;;;10308222;28;20045;-46
2024/01/13 00:46:00;;;;;;;5.88;3.75;;;;;;;;;;10286068;28;20474;-48
2024/01/13 00:51:01;;;;;;;6.30;4.25;;;;;;;;;;10282024;28;20500;-48
2024/01/13 00:56:02;;;;;;;7.88;3.67;;;;;;;;;;10296081;28;20027;-50
2024/01/13 01:01:03;;;;;;;6.00;4.10;;;;;;;;;;10294289;28;20036;-47
2024/01/13 01:06:04;;;;;;;7.05;4.32;;;;;;;;;;10300123;28;20038;-48
2024/01/13 01:11:05;;;;;;;6.25;4.10;;;;;;;;;;10301706;28;20042;-47
2024/01/13 01:16:06;;;;;;;4.53;3.67;;;;;;;;;;10309340;28;20383;-49
2024/01/13 01:21:07;;;;;;;5.03;3.70;;;;;;;;;;10278913;28;20047;-48
2024/01/13 01:26:07;;;;;;;5.32;3.33;;;;;;;;;;10315867;28;20494;-50
2024/01/13 01:31:08;;;;;;;6.63;3.92;;;;;;;;;;10320668;28;20069;-49
2024/01/13 01:36:09;;;;;;;5.45;3.92;;;;;;;;;;10310035;28;20475;-46
2024/01/13 01:41:15;;;;;;;5.30;3.92;;;;;;;;;;10294707;28;20553;-46
2024/01/13 01:46:17;;;;;;;7.97;3.88;;;;;;;;;;10300634;28;20030;-45
2024/01/13 01:51:18;;;;;;;6.47;3.65;;;;;;;;;;10275695;28;20363;-50
2024/01/13 01:56:28;;;;;;;5.65;3.80;;;;;;;;;;10293380;28;20434;-46
2024/01/13 02:01:32;;;;;;;5.97;3.92;;;;;;;;;;10292581;28;20125;-49
2024/01/13 02:06:33;;;;;;;5.75;3.70;;;;;;;;;;10285019;28;20206;-50
2024/01/13 02:11:34;;;;;;;5.10;3.13;;;;;;;;;;10299212;28;20038;-51
2024/01/13 02:16:34;;;;;;;4.10;3.38;;;;;;;;;;10301022;28;20030;-50
2024/01/13 02:21:36;;;;;;;6.00;3.85;;;;;;;;;;10282559;28;20038;-49
2024/01/13 02:26:37;;;;;;;5.35;3.38;;;;;;;;;;10306593;28;20027;-49
2024/01/13 02:31:38;;;;;;;5.70;3.80;;;;;;;;;;10314243;28;20054;-48
2024/01/13 02:36:39;;;;;;;4.80;3.22;;;;;;;;;;10315235;28;20053;-46
2024/01/13 02:41:39;;;;;;;5.28;3.78;;;;;;;;;;10306514;28;20038;-48
2024/01/13 02:46:40;;;;;;;7.18;3.95;;;;;;;;;;10301661;28;20031;-47
2024/01/13 02:51:40;;;;;;;4.88;3.38;;;;;;;;;;10290482;28;20022;-47
2024/01/13 02:56:41;;;;;;;4.78;3.50;;;;;;;;;;10307066;28;20174;-46
2024/01/13 03:01:41;;;;;;;5.28;3.58;;;;;;;;;;10290555;28;20030;-46
2024/01/13 03:06:42;;;;;;;4.68;3.50;;;;;;;;;;10302598;28;20483;-51
2024/01/13 03:11:43;;;;;;;5.43;3.72;;;;;;;;;;10287985;28;20042;-49
2024/01/13 03:16:43;;;;;;;4.93;3.20;;;;;;;;;;10305401;28;20075;-48
2024/01/13 03:21:44;;;;;;;4.55;3.42;;;;;;;;;;10298279;28;20437;-45
2024/01/13 03:26:44;;;;;;;4.03;3.50;;;;;;;;;;10281103;28;20038;-45
2024/01/13 03:31:45;;;;;;;5.90;3.35;;;;;;;;;;10294606;28;20193;-49
2024/01/13 03:36:45;;;;;;;5.00;3.58;;;;;;;;;;10293541;28;20058;-45
2024/01/13 03:41:46;;;;;;;6.30;3.10;;;;;;;;;;10287054;28;20027;-49
2024/01/13 03:46:47;;;;;;;5.00;3.33;;;;;;;;;;10301196;28;20046;-46
2024/01/13 03:51:47;;;;;;;7.55;3.78;;;;;;;;;;10295691;28;20038;-48
2024/01/13 03:56:48;;;;;;;3.85;3.20;;;;;;;;;;10300736;28;20038;-49
2024/01/13 04:01:48;;;;;;;4.93;3.33;;;;;;;;;;10316371;28;20077;-47
2024/01/13 04:06:49;;;;;;;4.70;3.63;;;;;;;;;;10303373;28;20027;-44
2024/01/13 04:11:49;;;;;;;5.85;3.70;;;;;;;;;;10291962;28;20038;-55
2024/01/13 04:16:50;;;;;;;4.22;3.17;;;;;;;;;;10284630;28;20414;-48
2024/01/13 04:21:51;;;;;;;4.85;3.15;;;;;;;;;;10296205;28;20034;-48
2024/01/13 04:26:51;;;;;;;4.10;3.50;;;;;;;;;;10309658;28;20033;-47
2024/01/13 04:31:52;;;;;;;4.70;3.40;;;;;;;;;;10310894;28;20035;-50
2024/01/13 04:36:52;;;;;;;4.85;3.58;;;;;;;;;;10306856;28;20093;-47
2024/01/13 04:41:53;;;;;;;3.83;3.05;;;;;;;;;;10307879;28;20027;-47
2024/01/13 04:46:54;;;;;;;4.40;3.08;;;;;;;;;;10310524;28;20375;-45
2024/01/13 04:51:54;;;;;;;3.75;3.08;;;;;;;;;;10292425;28;20398;-47
2024/01/13 04:56:55;;;;;;;3.55;3.00;;;;;;;;;;10293195;28;20372;-50
2024/01/13 05:01:55;;;;;;;3.85;3.00;;;;;;;;;;10299251;28;20478;-48
2024/01/13 05:06:56;;;;;;;3.90;2.70;;;;;;;;;;10305841;28;20417;-51
2024/01/13 05:11:56;;;;;;;5.82;3.13;;;;;;;;;;10300629;28;20650;-50
2024/01/13 05:16:57;;;;;;;4.78;3.30;;;;;;;;;;10301640;28;20026;-49
2024/01/13 05:21:58;;;;;;;4.18;3.10;;;;;;;;;;10301978;28;20054;-51
2024/01/13 05:26:58;;;;;;;4.93;3.10;;;;;;;;;;10303109;28;20408;-47
2024/01/13 05:31:59;;;;;;;3.83;3.00;;;;;;;;;;10282939;28;20059;-48
2024/01/13 05:36:59;;;;;;;5.20;3.15;;;;;;;;;;10271893;28;20070;-47
2024/01/13 05:42:00;;;;;;;5.55;3.10;;;;;;;;;;10300289;28;20022;-48
2024/01/13 05:47:01;;;;;;;3.65;2.60;;;;;;;;;;10300619;28;20027;-48
2024/01/13 05:52:01;;;;;;;7.25;3.53;;;;;;;;;;10288100;28;20045;-50
2024/01/13 05:57:02;;;;;;;4.03;2.80;;;;;;;;;;10302054;28;20035;-46
2024/01/13 06:02:03;;;;;;;6.53;3.15;;;;;;;;;;10317698;28;20493;-48
2024/01/13 06:07:04;;;;;;;3.83;3.10;;;;;;;;;;10284635;28;20046;-47
2024/01/13 06:12:05;;;;;;;3.22;2.75;;;;;;;;;;10289996;28;20042;-49
2024/01/13 06:17:06;;;;;;;3.15;2.85;;;;;;;;;;10281233;28;20042;-47
2024/01/13 06:22:06;;;;;;;4.93;3.10;;;;;;;;;;10307536;28;20037;-47
2024/01/13 06:27:07;;;;;;;4.25;2.92;;;;;;;;;;10297079;28;20027;-53
2024/01/13 06:32:07;;;;;;;3.67;2.92;;;;;;;;;;10309008;28;20034;-54
2024/01/13 06:37:08;;;;;;;3.92;3.15;;;;;;;;;;10322953;28;20042;-49
2024/01/13 06:42:09;;;;;;;3.30;3.00;;;;;;;;;;10299320;28;20033;-49
2024/01/13 06:47:09;;;;;;;4.57;3.22;;;;;;;;;;10268948;28;20495;-53
2024/01/13 06:52:12;;;;;;;4.25;2.92;;;;;;;;;;10288074;28;20089;-57
2024/01/13 06:57:12;;;;;;;4.43;2.90;;;;;;;;;;10294379;28;20022;-49
2024/01/13 07:02:14;;;;;;;6.32;3.10;;;;;;;;;;10285071;28;20478;-51
2024/01/13 07:07:14;;;;;;;3.17;2.83;;;;;;;;;;10295859;28;20119;-49
2024/01/13 07:12:15;;;;;;;7.32;3.10;;;;;;;;;;10278733;28;20026;-49
2024/01/13 07:17:15;;;;;;;3.55;2.97;;;;;;;;;;10302045;28;20504;-50
2024/01/13 07:22:16;;;;;;;3.67;3.15;;;;;;;;;;10292707;28;20394;-47
2024/01/13 07:27:16;;;;;;;3.85;3.28;;;;;;;;;;10283993;28;20413;-51
2024/01/13 07:32:17;;;;;;;4.85;2.85;;;;;;;;;;10283317;28;20540;-51
2024/01/13 07:37:18;;;;;;;4.43;2.78;;;;;;;;;;10279967;28;20057;-52
2024/01/13 07:42:18;;;;;;;4.25;3.15;;;;;;;;;;10266159;28;20041;-52
2024/01/13 07:47:19;;;;;;;3.80;3.13;;;;;;;;;;10319990;28;20486;-51
2024/01/13 07:52:19;;;;;;;4.07;2.97;;;;;;;;;;10316626;28;20033;-52
2024/01/13 07:57:20;;;;;;;20.38;3.40;;;;;;;;;;10291760;28;20274;-49
2024/01/13 08:02:21;;;;;;;5.65;3.20;;;;;;;;;;10284721;28;20035;-49
2024/01/13 08:07:25;;;;;;;4.35;3.25;;;;;;;;;;10292459;28;20019;-48
2024/01/13 08:12:26;;;;;;;3.63;3.03;;;;;;;;;;10284713;28;20031;-49
2024/01/13 08:17:27;;;;;;;9.20;4.80;;;;;;;;;;10300713;28;20388;-50
2024/01/13 08:22:29;;;;;;;9.68;5.10;;;;;;;;;;10297051;28;20359;-48
2024/01/13 08:27:29;;;;;;;8.40;6.00;;;;;;;;;;10290444;28;20038;-52
2024/01/13 08:32:30;;;;;;;12.98;5.63;;;;;;;;;;10290241;28;20462;-53
2024/01/13 08:37:30;;;;;;;10.48;6.90;;;;;;;;;;10290391;28;20117;-49
2024/01/13 08:42:31;;;;;;;17.23;8.13;;;;;;;;;;10288293;28;20038;-58
2024/01/13 08:47:32;;;;;;;11.45;8.00;;;;;;;;;;10290559;28;20068;-52
2024/01/13 08:52:32;;;;;;;22.73;7.88;;;;;;;;;;10292595;28;20026;-49
2024/01/13 08:57:33;;;;;;;15.20;8.38;;;;;;;;;;10294578;28;20023;-51
2024/01/13 09:02:33;;;;;;;11.70;7.70;;;;;;;;;;10298926;28;20035;-49
2024/01/13 09:07:35;;;;;;;19.00;7.68;;;;;;;;;;10293317;28;20029;-50
2024/01/13 09:12:37;;;;;;;18.30;8.55;;;;;;;;;;10286979;28;20033;-49
2024/01/13 09:17:38;;;;;;;20.95;8.48;;;;;;;;;;10281877;28;20122;-50
2024/01/13 09:22:39;;;;;;;18.67;8.40;;;;;;;;;;10313578;28;20508;-51
2024/01/13 09:27:40;;;;;;;23.20;8.80;;;;;;;;;;10324396;28;20103;-48
2024/01/13 09:32:42;;;;;;;22.73;9.40;;;;;;;;;;10324049;28;20195;-50
2024/01/13 09:37:42;;;;;;;17.70;9.35;;;;;;;;;;10286292;28;20542;-49
2024/01/13 09:43:01;;;;;;;26.85;8.80;;;;;;;;;;10273375;28;20083;-48
2024/01/13 09:48:03;;;;;;;;;;;;;;;;;;10266732;28;20042;-47
2024/01/13 09:53:08;;;;;;;24.48;9.02;;;;;;;;;;10265812;28;19929;-48
2024/01/13 09:58:09;;;;;;;25.23;9.38;;;;;;;;;;10259764;28;20046;-50
2024/01/13 10:03:10;;;;;;;28.30;9.10;;;;;;;;;;10270243;28;20503;-52
2024/01/13 10:08:12;;;;;;;31.40;9.38;;;;;;;;;;10282292;28;20074;-49
2024/01/13 10:13:12;;;;;;;29.77;9.73;;;;;;;;;;10287940;28;20023;-49
2024/01/13 10:18:13;;;;;;;19.95;9.50;;;;;;;;;;10282359;28;20031;-52
2024/01/13 10:23:15;;;;;;;34.17;8.75;;;;;;;;;;10291735;28;20026;-51
2024/01/13 10:28:16;;;;;;;24.88;8.48;;;;;;;;;;10313341;28;20117;-49
2024/01/13 10:33:17;;;;;;;13.13;8.15;;;;;;;;;;10321470;28;20035;-49
2024/01/13 10:38:17;;;;;;;20.13;8.52;;;;;;;;;;10287994;28;20522;-48
2024/01/13 10:43:22;;;;;;;13.77;8.25;;;;;;;;;;10287774;28;20030;-46
2024/01/13 10:48:36;;;;;;;22.63;9.55;;;;;;;;;;10295549;28;20026;-48
2024/01/13 10:53:37;;;;;;;17.88;7.95;;;;;;;;;;10279508;28;20031;-48
2024/01/13 10:58:38;;;;;;;20.65;9.05;;;;;;;;;;10307563;28;20033;-49
2024/01/13 11:03:41;;;;;;;13.43;8.00;;;;;;;;;;10314083;28;20023;-49
2024/01/13 11:08:45;;;;;;;29.15;8.75;;;;;;;;;;10300998;28;20521;-47
2024/01/13 11:13:51;;;;;;;24.13;8.48;;;;;;;;;;10304389;28;20238;-49
2024/01/13 11:18:53;;;;;;;16.88;7.57;;;;;;;;;;10309050;28;20030;-48
2024/01/13 11:23:54;;;;;;;20.20;9.10;;;;;;;;;;10300581;28;20042;-51
2024/01/13 11:28:56;;;;;;;19.83;8.25;;;;;;;;;;10303632;28;20029;-51
2024/01/13 11:33:59;;;;;;;22.85;8.15;;;;;;;;;;10301025;28;20022;-52
2024/01/13 11:39:01;;;;;;;18.70;7.32;;;;;;;;;;10278147;28;20050;-52
2024/01/13 11:44:01;;;;;;;17.67;8.05;;;;;;;;;;10285282;28;20034;-47
2024/01/13 11:49:03;;;;;;;22.10;8.63;;;;;;;;;;10284706;28;20092;-49
2024/01/13 11:54:04;;;;;;;22.73;8.45;;;;;;;;;;10285199;28;20047;-48
2024/01/13 11:59:05;;;;;;;13.32;7.97;;;;;;;;;;10299975;28;20382;-48
2024/01/13 12:04:05;;;;;;;22.88;8.38;;;;;;;;;;10303705;28;20022;-52
2024/01/13 12:09:06;;;;;;;23.55;8.50;;;;;;;;;;10305069;28;20018;-50
2024/01/13 12:14:07;;;;;;;20.08;7.95;;;;;;;;;;10302753;28;20035;-48
2024/01/13 12:19:08;;;;;;;19.17;7.55;;;;;;;;;;10254998;28;20031;-48
2024/01/13 12:24:08;;;;;;;13.57;6.97;;;;;;;;;;10277522;28;20050;-51
2024/01/13 12:29:10;;;;;;;19.90;8.35;;;;;;;;;;10275660;28;20085;-48
2024/01/13 12:34:14;;;;;;;14.68;8.02;;;;;;;;;;10282126;28;20451;-50
2024/01/13 12:39:15;;;;;;;17.25;8.07;;;;;;;;;;10264142;28;20043;-48
2024/01/13 12:44:15;;;;;;;16.58;7.53;;;;;;;;;;10256386;28;20360;-49
2024/01/13 12:49:17;;;;;;;14.77;8.05;;;;;;;;;;10257944;28;20038;-49
2024/01/13 12:54:21;;;;;;;14.60;7.93;;;;;;;;;;10259363;28;20023;-50
2024/01/13 12:59:23;;;;;;;17.15;7.32;;;;;;;;;;10248080;28;20046;-48
2024/01/13 13:04:24;;;;;;;10.60;7.47;;;;;;;;;;10260686;28;20475;-48
2024/01/13 13:09:24;;;;;;;12.05;7.53;;;;;;;;;;10272084;28;20023;-49
2024/01/13 13:14:25;;;;;;;13.27;7.40;;;;;;;;;;10263444;28;20471;-54
2024/01/13 13:19:26;;;;;;;10.35;7.30;;;;;;;;;;10252500;28;20510;-52
2024/01/13 13:24:26;;;;;;;15.80;7.10;;;;;;;;;;10262779;28;20054;-53
2024/01/13 13:29:27;;;;;;;14.88;7.38;;;;;;;;;;10253143;28;20031;-53
2024/01/13 13:34:27;;;;;;;22.50;6.78;;;;;;;;;;10213453;28;20043;-49
2024/01/13 13:39:31;;;;;;;11.63;6.72;;;;;;;;;;10256346;28;20051;-53
2024/01/13 13:44:34;;;;;;;18.30;7.47;;;;;;;;;;10233740;28;20031;-52
2024/01/13 13:49:35;;;;;;;12.00;7.15;;;;;;;;;;10243126;28;20095;-54
2024/01/13 13:54:36;;;;;;;12.45;7.07;;;;;;;;;;10235738;28;20177;-51
2024/01/13 13:59:36;;;;;;;13.38;6.68;;;;;;;;;;10249235;28;20035;-50
2024/01/13 14:04:37;;;;;;;12.57;6.97;;;;;;;;;;10238283;28;20125;-55
2024/01/13 14:09:37;;;;;;;12.80;7.18;;;;;;;;;;10239092;28;20395;-53
2024/01/13 14:14:38;;;;;;;15.98;7.05;;;;;;;;;;10269199;28;20046;-55
2024/01/13 14:19:39;;;;;;;11.77;7.10;;;;;;;;;;10280888;28;20111;-51
2024/01/13 14:24:39;;;;;;;9.30;6.75;;;;;;;;;;10276014;28;20035;-55
2024/01/13 14:29:40;;;;;;;9.60;6.53;;;;;;;;;;10262572;28;20019;-52
2024/01/13 14:34:41;;;;;;;13.07;6.97;;;;;;;;;;10266583;28;20114;-56
2024/01/13 14:39:42;;;;;;;11.63;6.43;;;;;;;;;;10263110;28;20057;-55
2024/01/13 14:44:45;;;;;;;15.40;7.20;;;;;;;;;;10274844;28;20356;-52
2024/01/13 14:49:45;;;;;;;10.00;6.50;;;;;;;;;;10271252;28;20383;-52
2024/01/13 14:54:46;;;;;;;8.18;6.28;;;;;;;;;;10253990;28;20030;-52
2024/01/13 14:59:48;;;;;;;11.32;5.95;;;;;;;;;;10261500;28;20031;-51
2024/01/13 15:04:48;;;;;;;7.93;6.18;;;;;;;;;;10238779;28;20079;-52
2024/01/13 15:09:49;;;;;;;12.38;6.18;;;;;;;;;;10255969;28;20179;-52
2024/01/13 15:14:49;;;;;;;10.32;6.70;;;;;;;;;;10250435;28;20542;-53
2024/01/13 15:19:50;;;;;;;10.15;6.40;;;;;;;;;;10279523;28;20382;-52
2024/01/13 15:24:50;;;;;;;9.20;6.40;;;;;;;;;;10258359;28;20447;-51
2024/01/13 15:29:51;;;;;;;8.45;6.80;;;;;;;;;;10247414;28;20387;-52
2024/01/13 15:34:53;;;;;;;10.20;6.63;;;;;;;;;;10266510;28;20026;-52
2024/01/13 15:39:54;;;;;;;8.00;6.18;;;;;;;;;;10250678;28;20495;-51
2024/01/13 15:44:55;;;;;;;13.07;6.68;;;;;;;;;;10264033;28;20118;-52
2024/01/13 15:49:55;;;;;;;9.23;6.97;;;;;;;;;;10262519;28;20398;-52
2024/01/13 15:54:57;;;;;;;9.05;6.00;;;;;;;;;;10245445;28;20406;-53
2024/01/13 15:59:57;;;;;;;7.68;6.18;;;;;;;;;;10234405;28;20047;-52
2024/01/13 16:04:58;;;;;;;9.10;6.57;;;;;;;;;;10245166;28;20035;-52
2024/01/13 16:10:00;;;;;;;11.57;6.80;;;;;;;;;;10270420;28;20407;-52
2024/01/13 16:15:01;;;;;;;9.75;6.95;;;;;;;;;;10248145;28;20043;-53
2024/01/13 16:20:01;;;;;;;8.90;6.63;;;;;;;;;;10190634;28;20050;-53
2024/01/13 16:25:06;;;;;;;12.23;6.90;;;;;;;;;;10267025;28;20498;-53
2024/01/13 16:30:07;;;;;;;8.70;6.13;;;;;;;;;;10274918;28;20359;-48
2024/01/13 16:35:09;;;;;;;11.60;7.22;;;;;;;;;;10276502;28;20042;-52
2024/01/13 16:40:10;;;;;;;9.98;6.78;;;;;;;;;;10264090;28;20051;-53
2024/01/13 16:45:11;;;;;;;11.25;6.50;;;;;;;;;;10263089;28;20042;-53
2024/01/13 16:50:12;;;;;;;10.75;7.00;;;;;;;;;;10278559;28;20122;-53
2024/01/13 16:55:13;;;;;;;8.05;6.50;;;;;;;;;;10277172;28;20494;-50
2024/01/13 17:00:16;;;;;;;11.70;7.30;;;;;;;;;;10269754;28;20054;-52
2024/01/13 17:05:18;;;;;;;11.18;6.65;;;;;;;;;;10239683;28;20023;-52
2024/01/13 17:10:19;;;;;;;10.55;7.43;;;;;;;;;;10252186;28;20027;-52
2024/01/13 17:15:21;;;;;;;10.18;6.72;;;;;;;;;;10269075;28;20121;-51
2024/01/13 17:20:22;;;;;;;9.98;7.30;;;;;;;;;;10263860;28;20039;-52
2024/01/13 17:25:23;;;;;;;12.57;7.72;;;;;;;;;;10246286;28;20090;-51
2024/01/13 17:30:24;;;;;;;9.50;6.97;;;;;;;;;;10267861;28;20519;-51
2024/01/13 17:35:24;;;;;;;11.18;7.03;;;;;;;;;;10283338;28;20403;-56
2024/01/13 17:40:25;;;;;;;11.00;7.90;;;;;;;;;;10269539;28;20031;-52
2024/01/13 17:45:27;;;;;;;9.80;7.60;;;;;;;;;;10272540;28;20552;-58
2024/01/13 17:50:27;;;;;;;13.32;7.82;;;;;;;;;;10268129;28;20075;-50
2024/01/13 17:55:28;;;;;;;10.98;6.78;;;;;;;;;;10245815;28;20127;-52
2024/01/13 18:00:28;;;;;;;11.80;6.80;;;;;;;;;;10272830;28;20026;-51
2024/01/13 18:05:29;;;;;;;15.57;7.28;;;;;;;;;;10272579;28;20023;-51
2024/01/13 18:10:30;;;;;;;10.93;7.45;;;;;;;;;;10274214;28;20023;-50
2024/01/13 18:15:31;;;;;;;14.10;7.45;;;;;;;;;;10246221;28;20027;-54
2024/01/13 18:20:31;;;;;;;36.25;9.35;;;;;;;;;;10238820;28;20063;-52
2024/01/13 18:25:32;;;;;;;16.52;7.90;;;;;;;;;;10236092;28;20584;-50
2024/01/13 18:30:33;;;;;;;20.05;8.40;;;;;;;;;;10237986;28;20035;-55
2024/01/13 18:35:34;;;;;;;21.42;8.10;;;;;;;;;;10234161;28;20047;-51
2024/01/13 18:40:34;;;;;;;15.43;8.02;;;;;;;;;;10242331;28;20275;-50
2024/01/13 18:45:35;;;;;;;29.05;8.40;;;;;;;;;;10245513;28;20032;-51
2024/01/13 18:50:35;;;;;;;20.23;8.00;;;;;;;;;;10218961;28;20019;-50
2024/01/13 18:55:36;;;;;;;18.85;7.85;;;;;;;;;;10243271;28;20027;-56
2024/01/13 19:00:37;;;;;;;11.15;7.13;;;;;;;;;;10241772;28;20027;-52
2024/01/13 19:05:37;;;;;;;15.00;7.70;;;;;;;;;;10231904;28;20031;-52
2024/01/13 19:10:38;;;;;;;11.15;6.90;;;;;;;;;;10234593;28;20023;-56
2024/01/13 19:15:38;;;;;;;16.60;8.77;;;;;;;;;;10253083;28;20038;-51
2024/01/13 19:20:39;;;;;;;16.50;10.23;;;;;;;;;;10251525;28;20475;-53
2024/01/13 19:25:40;;;;;;;15.40;9.80;;;;;;;;;;10237974;28;20038;-52
2024/01/13 19:30:40;;;;;;;14.00;9.88;;;;;;;;;;10250690;28;20042;-48
2024/01/13 19:35:41;;;;;;;17.30;9.52;;;;;;;;;;10255101;28;20103;-47
2024/01/13 19:40:42;;;;;;;12.05;9.05;;;;;;;;;;10237059;28;20027;-48
2024/01/13 19:45:42;;;;;;;19.30;10.10;;;;;;;;;;10226892;28;20032;-49
2024/01/13 19:50:45;;;;;;;19.95;10.50;;;;;;;;;;10225871;28;20039;-51
2024/01/13 19:55:45;;;;;;;20.15;10.02;;;;;;;;;;10268002;28;20038;-50
2024/01/13 20:00:46;;;;;;;17.02;10.25;;;;;;;;;;10268987;28;20039;-50
2024/01/13 20:05:47;;;;;;;18.35;9.25;;;;;;;;;;10245153;28;20037;-50
2024/01/13 20:10:47;;;;;;;16.00;10.02;;;;;;;;;;10255389;28;20027;-50
2024/01/13 20:15:48;;;;;;;16.52;10.20;;;;;;;;;;10249482;28;20035;-48
2024/01/13 20:20:49;;;;;;;13.60;9.32;;;;;;;;;;10248482;28;20059;-52
2024/01/13 20:25:49;;;;;;;16.25;9.77;;;;;;;;;;10254530;28;20031;-49
2024/01/13 20:30:50;;;;;;;13.00;9.05;;;;;;;;;;10241388;28;20167;-56
2024/01/13 20:35:50;;;;;;;11.85;8.88;;;;;;;;;;10253166;28;20055;-52
2024/01/13 20:40:51;;;;;;;13.82;8.90;;;;;;;;;;10258684;28;20039;-50
2024/01/13 20:45:51;;;;;;;15.80;9.55;;;;;;;;;;10249179;28;20094;-51
2024/01/13 20:50:56;;;;;;;14.93;9.65;;;;;;;;;;10248921;28;20097;-50
2024/01/13 20:55:57;;;;;;;15.32;9.02;;;;;;;;;;10248475;28;20027;-47
2024/01/13 21:00:57;;;;;;;13.48;8.55;;;;;;;;;;10252274;28;20039;-51
2024/01/13 21:05:59;;;;;;;27.50;9.55;;;;;;;;;;10258991;28;20035;-54
2024/01/13 21:11:00;;;;;;;17.30;9.68;;;;;;;;;;10280786;28;20030;-49
2024/01/13 21:16:03;;;;;;;15.00;9.25;;;;;;;;;;10260422;28;20040;-51
2024/01/13 21:21:04;;;;;;;15.48;8.60;;;;;;;;;;10248824;28;20542;-52
2024/01/13 21:26:04;;;;;;;12.23;8.80;;;;;;;;;;10248772;28;20450;-49
2024/01/13 21:31:05;;;;;;;14.98;10.25;;;;;;;;;;10249718;28;20027;-54
2024/01/13 21:36:07;;;;;;;37.10;12.18;;;;;;;;;;10257345;28;20049;-50
2024/01/13 21:41:08;;;;;;;33.03;12.93;;;;;;;;;;10265032;28;20155;-49
2024/01/13 21:46:09;;;;;;;27.25;11.23;;;;;;;;;;10251576;28;20474;-52
2024/01/13 21:51:10;;;;;;;33.08;13.75;;;;;;;;;;10253133;28;20074;-51
2024/01/13 21:56:11;;;;;;;39.00;15.27;;;;;;;;;;10272985;28;20371;-52
2024/01/13 22:01:16;;;;;;;45.22;15.45;;;;;;;;;;10246843;28;20027;-52
2024/01/13 22:06:16;;;;;;;32.83;15.32;;;;;;;;;;10244252;28;20042;-54
2024/01/13 22:11:17;;;;;;;27.05;14.02;;;;;;;;;;10265081;28;20042;-50
2024/01/13 22:16:17;;;;;;;32.58;14.30;;;;;;;;;;10276426;28;20035;-50
2024/01/13 22:21:18;;;;;;;30.92;13.57;;;;;;;;;;10270151;28;20039;-54
2024/01/13 22:26:20;;;;;;;28.52;13.68;;;;;;;;;;10274772;28;20050;-52
2024/01/13 22:31:21;;;;;;;31.30;14.77;;;;;;;;;;10272317;28;20058;-51
2024/01/13 22:36:24;;;;;;;25.35;13.27;;;;;;;;;;10281601;28;20521;-53
2024/01/13 22:41:25;;;;;;;28.00;14.18;;;;;;;;;;10279590;28;20479;-52
2024/01/13 22:46:25;;;;;;;30.45;14.15;;;;;;;;;;10277721;28;20038;-54
2024/01/13 22:51:26;;;;;;;28.77;13.57;;;;;;;;;;10257463;28;20070;-51
2024/01/13 22:56:31;;;;;;;26.65;13.70;;;;;;;;;;10269146;28;20022;-52
2024/01/13 23:01:32;;;;;;;30.83;13.60;;;;;;;;;;10268205;28;20062;-52
2024/01/13 23:06:33;;;;;;;25.52;12.02;;;;;;;;;;10272052;28;20034;-52
2024/01/13 23:11:33;;;;;;;21.90;13.05;;;;;;;;;;10267807;28;20031;-53
2024/01/13 23:16:34;;;;;;;19.52;11.98;;;;;;;;;;10263098;28;20034;-49
2024/01/13 23:21:34;;;;;;;29.50;12.00;;;;;;;;;;10273088;28;20031;-51
2024/01/13 23:26:35;;;;;;;22.27;11.82;;;;;;;;;;10277698;28;20027;-52
2024/01/13 23:31:35;;;;;;;22.98;12.10;;;;;;;;;;10280214;28;20034;-52
2024/01/13 23:36:37;;;;;;;18.27;11.05;;;;;;;;;;10267177;28;20047;-51
2024/01/13 23:41:37;;;;;;;23.95;12.13;;;;;;;;;;10263069;28;20431;-52
2024/01/13 23:46:38;;;;;;;18.08;11.70;;;;;;;;;;10262506;28;20035;-50
2024/01/13 23:51:39;;;;;;;20.58;11.85;;;;;;;;;;10271162;28;20038;-52
2024/01/13 23:56:43;;;;;;;24.33;11.32;;;;;;;;;;10276144;28;20031;-49
